Time;durP1;ratioP1;P1;durP2;ratioP2;P2;SDS_P1;SDS_P2;PMS_P1;PMS_P2;Temp;Humidity;BMP_temperature;BMP_pressure;BME280_temperature;BME280_humidity;BME280_pressure;Samples;Min_cycle;Max_cycle;Signal;HPM_P1;HPM_P2
2022/10/26 00:01:47;;;;;;;4.68;1.60;;;;;;;13.94;100.00;99750.97;12206781;19;20018;-80
2022/10/26 00:05:49;;;;;;;8.27;2.28;;;;;;;13.94;100.00;99739.88;12185002;19;20007;-79
2022/10/26 00:09:51;;;;;;;6.57;1.88;;;;;;;13.95;100.00;99744.34;12207189;19;20007;-79
2022/10/26 00:13:52;;;;;;;11.48;2.10;;;;;;;14.00;100.00;99736.03;12205011;19;20020;-79
2022/10/26 00:17:54;;;;;;;13.40;2.25;;;;;;;14.04;100.00;99739.94;12183690;19;20360;-78
2022/10/26 00:21:56;;;;;;;8.00;1.40;;;;;;;14.06;100.00;99734.09;12205031;19;20335;-80
2022/10/26 00:25:58;;;;;;;7.88;1.50;;;;;;;14.06;100.00;99729.38;12208894;19;20013;-79
2022/10/26 00:30:01;;;;;;;5.57;1.25;;;;;;;14.11;100.00;99731.34;12186696;19;20010;-81
2022/10/26 00:34:03;;;;;;;7.47;2.03;;;;;;;14.16;100.00;99736.91;12205264;19;20011;-80
2022/10/26 00:38:04;;;;;;;7.03;1.80;;;;;;;14.21;100.00;99742.41;12208836;19;20039;-81
2022/10/26 00:42:12;;;;;;;7.45;1.35;;;;;;;14.24;100.00;99752.13;12185130;19;20006;-80
2022/10/26 00:46:18;;;;;;;6.60;1.52;;;;;;;14.28;100.00;99762.41;12206643;19;20007;-80
2022/10/26 00:50:25;;;;;;;5.00;1.63;;;;;;;14.31;100.00;99769.34;12206660;19;20009;-80
2022/10/26 00:54:26;;;;;;;6.28;1.52;;;;;;;14.28;100.00;99761.56;12184912;19;20003;-81
2022/10/26 00:58:29;;;;;;;6.38;1.65;;;;;;;14.21;100.00;99731.34;12200115;19;20047;-81
2022/10/26 01:02:30;;;;;;;9.30;2.07;;;;;;;14.22;100.00;99744.09;12204870;19;20613;-80
2022/10/26 01:06:35;;;;;;;7.53;1.73;;;;;;;14.22;100.00;99754.34;12192927;19;20637;-80
2022/10/26 01:10:38;;;;;;;8.88;1.95;;;;;;;14.13;100.00;99768.75;12216623;19;20042;-80
2022/10/26 01:14:40;;;;;;;9.60;1.58;;;;;;;14.08;100.00;99763.19;12192514;19;20676;-81
2022/10/26 01:19:04;;;;;;;9.10;1.90;;;;;;;14.06;100.00;99759.84;12212750;19;20070;-79
2022/10/26 01:23:34;;;;;;;5.40;1.65;;;;;;;14.05;100.00;99740.75;12216507;19;20017;-80
2022/10/26 01:27:39;;;;;;;7.45;2.00;;;;;;;14.04;100.00;99730.75;12183339;19;20010;-80
2022/10/26 01:31:47;;;;;;;6.97;1.50;;;;;;;14.07;100.00;99744.91;12215368;19;20074;-80
2022/10/26 01:36:07;;;;;;;11.20;3.97;;;;;;;14.09;100.00;99739.91;12193686;19;20068;-80
2022/10/26 01:40:33;;;;;;;4.30;2.00;;;;;;;14.11;100.00;99725.78;12214210;19;20018;-81
2022/10/26 01:44:43;;;;;;;6.88;2.03;;;;;;;14.16;100.00;99706.41;12215028;19;20006;-80
2022/10/26 01:48:48;;;;;;;7.07;1.50;;;;;;;14.19;100.00;99716.94;12194148;19;20084;-80
2022/10/26 01:52:49;;;;;;;4.95;1.92;;;;;;;14.17;100.00;99712.78;12214593;19;20014;-80
2022/10/26 01:56:56;;;;;;;6.60;1.75;;;;;;;14.17;100.00;99715.56;12194469;19;20011;-80
2022/10/26 02:01:17;;;;;;;11.95;2.03;;;;;;;14.17;100.00;99721.91;12216645;19;20010;-80
2022/10/26 02:05:34;;;;;;;6.65;1.80;;;;;;;14.19;100.00;99728.03;12229506;19;20010;-79
2022/10/26 02:10:02;;;;;;;4.60;2.10;;;;;;;14.07;100.00;99708.91;12247194;19;20018;-79
2022/10/26 02:14:11;;;;;;;7.30;2.13;;;;;;;14.04;100.00;99709.44;12254170;19;20041;-80
2022/10/26 02:18:33;;;;;;;10.90;2.17;;;;;;;14.04;100.00;99703.06;12192985;19;20007;-80
2022/10/26 02:22:44;;;;;;;5.05;1.92;;;;;;;14.02;100.00;99711.66;12213451;19;20401;-81
2022/10/26 02:26:47;;;;;;;13.07;2.22;;;;;;;13.97;100.00;99708.88;12193563;19;20464;-80
2022/10/26 02:30:55;;;;;;;10.27;1.92;;;;;;;13.94;100.00;99709.41;12214957;19;20011;-80
2022/10/26 02:35:00;;;;;;;9.63;2.25;;;;;;;13.86;100.00;99701.63;12212371;19;20010;-80
2022/10/26 02:39:04;;;;;;;5.55;2.28;;;;;;;13.78;100.00;99705.78;12191298;19;20015;-80
2022/10/26 02:43:14;;;;;;;8.23;3.63;;;;;;;13.75;100.00;99697.22;12212343;19;20010;-81
2022/10/26 02:47:18;;;;;;;5.13;1.88;;;;;;;13.77;100.00;99697.75;12212202;19;20007;-81
2022/10/26 02:51:31;;;;;;;6.43;2.00;;;;;;;13.77;100.00;99697.75;12187880;19;20018;-81
2022/10/26 02:55:39;;;;;;;10.45;2.65;;;;;;;13.73;100.00;99686.41;12214014;19;20003;-80
2022/10/26 02:59:46;;;;;;;8.35;2.63;;;;;;;13.73;100.00;99688.34;12191281;19;20014;-80
2022/10/26 03:03:48;;;;;;;6.93;2.03;;;;;;;13.76;100.00;99679.47;12211355;19;20025;-80
2022/10/26 03:07:49;;;;;;;5.90;2.25;;;;;;;13.80;100.00;99675.91;12211925;19;20006;-80
2022/10/26 03:11:51;;;;;;;8.80;2.20;;;;;;;13.82;100.00;99675.63;12188073;19;20353;-79
2022/10/26 03:15:56;;;;;;;3.15;1.40;;;;;;;13.87;100.00;99672.84;12212317;19;20034;-80
2022/10/26 03:19:58;;;;;;;8.98;1.55;;;;;;;13.90;100.00;99670.38;12209624;19;20021;-79
2022/10/26 03:24:00;;;;;;;10.45;2.05;;;;;;;13.94;100.00;99684.47;12189012;19;20026;-79
2022/10/26 03:28:04;;;;;;;6.60;1.88;;;;;;;13.95;100.00;99694.47;12207681;19;20074;-79
2022/10/26 03:32:06;;;;;;;14.38;3.83;;;;;;;13.98;100.00;99695.84;12210216;19;20031;-79
2022/10/26 03:36:08;;;;;;;7.27;1.90;;;;;;;13.98;100.00;99693.06;12187494;19;20011;-80
2022/10/26 03:40:10;;;;;;;5.47;1.40;;;;;;;14.00;100.00;99694.47;12210475;19;20276;-80
2022/10/26 03:44:12;;;;;;;8.20;1.83;;;;;;;13.97;100.00;99714.41;12211349;19;20019;-80
2022/10/26 03:48:13;;;;;;;9.10;2.13;;;;;;;13.89;100.00;99742.63;12186857;19;20126;-79
2022/10/26 03:52:15;;;;;;;6.43;2.53;;;;;;;13.72;100.00;99744.84;12242480;19;20009;-79
2022/10/26 03:56:18;;;;;;;;;;;;;;;13.57;100.00;99757.50;12267609;19;20006;-79
2022/10/26 04:00:20;;;;;;;7.32;2.67;;;;;;;13.53;100.00;99730.63;12197301;19;19915;-80
2022/10/26 04:04:21;;;;;;;8.88;3.30;;;;;;;13.43;100.00;99751.63;12208205;19;20495;-79
2022/10/26 04:08:23;;;;;;;13.13;3.65;;;;;;;13.33;100.00;99734.16;12210149;19;20015;-80
2022/10/26 04:12:25;;;;;;;10.02;3.80;;;;;;;13.26;100.00;99723.31;12185410;19;20010;-80
2022/10/26 04:16:27;;;;;;;7.28;3.25;;;;;;;13.26;100.00;99711.44;12209099;19;20786;-80
2022/10/26 04:20:35;;;;;;;10.52;3.60;;;;;;;13.23;100.00;99701.69;12211960;19;20500;-80
2022/10/26 04:24:38;;;;;;;9.73;2.88;;;;;;;13.20;100.00;99692.00;12190414;19;20027;-80
2022/10/26 04:28:40;;;;;;;14.73;2.97;;;;;;;13.23;100.00;99685.91;12206726;19;20029;-80
2022/10/26 04:32:42;;;;;;;10.82;2.97;;;;;;;13.24;100.00;99678.47;12185764;19;20013;-80
2022/10/26 04:36:43;;;;;;;8.52;2.88;;;;;;;13.21;100.00;99679.84;12205991;19;20472;-80
2022/10/26 04:40:45;;;;;;;14.57;3.13;;;;;;;13.14;100.00;99687.53;12216357;19;20494;-80
2022/10/26 04:44:46;;;;;;;5.95;2.65;;;;;;;13.06;100.00;99696.38;12196755;19;20030;-80
2022/10/26 04:48:48;;;;;;;7.53;2.53;;;;;;;12.97;100.00;99692.47;12220238;19;20080;-80
2022/10/26 04:52:50;;;;;;;8.43;2.40;;;;;;;12.91;100.00;99688.84;12220537;19;20129;-80
2022/10/26 04:56:52;;;;;;;6.47;2.42;;;;;;;12.85;100.00;99694.59;12196541;19;20084;-80
2022/10/26 05:00:54;;;;;;;5.75;2.33;;;;;;;12.75;100.00;99701.72;12220779;19;20026;-80
2022/10/26 05:04:57;;;;;;;6.15;2.47;;;;;;;12.69;100.00;99711.09;12216575;19;20019;-80
2022/10/26 05:08:58;;;;;;;7.32;2.83;;;;;;;12.63;100.00;99708.56;12197387;19;20006;-79
2022/10/26 05:13:01;;;;;;;6.68;2.80;;;;;;;12.62;100.00;99718.78;12217886;19;20003;-80
2022/10/26 05:17:03;;;;;;;5.70;2.65;;;;;;;12.64;100.00;99715.75;12217413;19;20356;-80
2022/10/26 05:21:05;;;;;;;8.10;2.60;;;;;;;12.68;100.00;99711.38;12192543;19;20035;-80
2022/10/26 05:25:07;;;;;;;4.93;2.20;;;;;;;12.71;100.00;99705.31;12216118;19;20030;-80
2022/10/26 05:29:09;;;;;;;15.23;2.70;;;;;;;12.73;100.00;99706.69;12217415;19;20014;-81
2022/10/26 05:33:12;;;;;;;7.63;2.40;;;;;;;12.83;100.00;99705.09;12192537;19;20011;-80
2022/10/26 05:37:14;;;;;;;5.15;2.42;;;;;;;12.89;100.00;99709.56;12214667;19;20341;-80
2022/10/26 05:41:16;;;;;;;9.05;3.08;;;;;;;12.96;100.00;99710.97;12220252;19;20014;-80
2022/10/26 05:45:18;;;;;;;7.43;2.60;;;;;;;13.03;100.00;99702.44;12192122;19;20051;-79
2022/10/26 05:49:19;;;;;;;4.47;2.33;;;;;;;13.11;100.00;99699.16;12216081;19;20472;-79
2022/10/26 05:53:21;;;;;;;7.07;3.00;;;;;;;13.18;100.00;99707.22;12206301;19;20019;-78
2022/10/26 05:57:23;;;;;;;10.70;2.70;;;;;;;13.23;100.00;99719.13;12181475;19;20574;-78
2022/10/26 06:06:39;;;;;;;6.53;2.45;;;;;;;13.27;100.00;99732.47;12216174;19;20103;-79
2022/10/26 06:10:41;;;;;;;8.23;3.22;;;;;;;13.28;100.00;99745.22;12217634;19;20022;-78
2022/10/26 06:14:43;;;;;;;8.13;3.13;;;;;;;13.27;100.00;99755.44;12190200;19;20014;-78
2022/10/26 06:18:53;;;;;;;7.22;3.30;;;;;;;13.26;100.00;99748.22;12214298;19;20466;-79
2022/10/26 06:23:16;;;;;;;6.90;2.50;;;;;;;13.21;100.00;99765.63;12215013;19;20011;-78
2022/10/26 06:27:46;;;;;;;10.93;3.50;;;;;;;13.20;100.00;99772.25;12194929;19;20006;-78
2022/10/26 06:31:51;;;;;;;8.35;2.97;;;;;;;13.21;100.00;99778.63;12214846;19;20003;-78
2022/10/26 06:35:58;;;;;;;10.05;3.70;;;;;;;13.24;100.00;99772.56;12196068;19;20023;-78
2022/10/26 06:40:03;;;;;;;10.40;3.63;;;;;;;13.29;100.00;99786.44;12216063;19;20046;-78
2022/10/26 06:44:06;;;;;;;7.10;3.60;;;;;;;13.32;100.00;99793.38;12214565;19;20033;-79
2022/10/26 06:48:14;;;;;;;8.05;2.92;;;;;;;13.32;100.00;99787.84;12191331;19;20353;-78
2022/10/26 06:52:22;;;;;;;9.18;4.03;;;;;;;13.35;100.00;99788.13;12215262;19;20014;-79
2022/10/26 06:56:26;;;;;;;10.05;4.20;;;;;;;13.40;100.00;99796.47;12214472;19;20018;-78
2022/10/26 07:00:28;;;;;;;16.13;4.33;;;;;;;13.45;100.00;99802.03;12194106;19;20568;-78
2022/10/26 07:04:30;;;;;;;7.38;3.80;;;;;;;13.51;100.00;99802.91;12221534;19;20007;-79
2022/10/26 07:08:32;;;;;;;9.68;4.15;;;;;;;13.55;100.00;99812.31;12234099;19;20100;-78
2022/10/26 07:12:34;;;;;;;11.13;4.72;;;;;;;13.58;100.00;99814.53;12190970;19;20014;-77
2022/10/26 07:16:36;;;;;;;10.65;4.53;;;;;;;13.63;100.00;99813.75;12209075;19;20824;-78
2022/10/26 07:20:40;;;;;;;11.67;4.07;;;;;;;13.72;100.00;99812.13;12213874;19;20095;-78
2022/10/26 07:24:41;;;;;;;9.30;4.13;;;;;;;13.78;100.00;99822.13;12192129;19;20082;-79
2022/10/26 07:28:46;;;;;;;11.35;4.35;;;;;;;13.82;100.00;99822.41;12212386;19;20007;-79
2022/10/26 07:32:48;;;;;;;8.32;3.92;;;;;;;13.88;100.00;99827.69;12192736;19;20030;-78
2022/10/26 07:36:50;;;;;;;9.20;3.72;;;;;;;13.93;100.00;99835.19;12211470;19;20011;-78
2022/10/26 07:40:53;;;;;;;7.53;3.80;;;;;;;14.05;100.00;99846.03;12212847;19;20030;-79
2022/10/26 07:44:54;;;;;;;9.02;3.25;;;;;;;14.11;100.00;99853.25;12189506;19;20380;-79
2022/10/26 07:48:56;;;;;;;9.05;3.10;;;;;;;14.17;100.00;99846.63;12205724;19;20014;-78
2022/10/26 07:52:58;;;;;;;8.75;3.45;;;;;;;14.25;100.00;99853.59;12210886;19;20010;-78
2022/10/26 07:57:00;;;;;;;7.85;3.40;;;;;;;14.39;100.00;99857.47;12188246;19;20820;-78
2022/10/26 08:01:11;;;;;;;12.33;3.37;;;;;;;14.55;100.00;99856.44;12210210;19;20002;-77
2022/10/26 08:05:13;;;;;;;7.20;3.22;;;;;;;14.71;100.00;99850.91;12209863;19;20030;-78
2022/10/26 08:09:15;;;;;;;6.68;3.25;;;;;;;14.85;100.00;99860.34;12192667;19;20029;-79
2022/10/26 08:13:17;;;;;;;6.13;2.42;;;;;;;14.99;100.00;99858.69;12225791;19;20111;-80
2022/10/26 08:17:20;;;;;;;15.10;3.28;;;;;;;15.13;100.00;99863.66;12209766;19;20322;-77
2022/10/26 08:21:22;;;;;;;;;;;;;;;15.28;100.00;99870.03;12197981;19;20572;-77
2022/10/26 08:25:39;;;;;;;7.93;2.55;;;;;;;15.47;100.00;99864.75;12217304;19;20263;-80
2022/10/26 08:29:41;;;;;;;7.85;2.60;;;;;;;15.66;100.00;99869.69;12220178;19;20017;-78
2022/10/26 08:33:43;;;;;;;7.45;2.40;;;;;;;15.84;100.00;99879.38;12221247;19;20006;-80
2022/10/26 08:37:45;;;;;;;8.20;2.30;;;;;;;16.02;100.00;99872.38;12216522;19;20015;-78
2022/10/26 08:41:53;;;;;;;12.07;2.53;;;;;;;16.25;100.00;99871.72;12195300;19;20038;-78
2022/10/26 08:46:20;;;;;;;5.60;2.13;;;;;;;16.35;100.00;99868.03;12235844;19;20479;-76
2022/10/26 08:50:31;;;;;;;8.48;2.53;;;;;;;16.39;100.00;99874.72;12215463;19;20010;-76
2022/10/26 08:54:37;;;;;;;10.63;2.60;;;;;;;16.52;100.00;99884.34;12181475;19;20010;-76
2022/10/26 08:58:48;;;;;;;6.10;2.22;;;;;;;16.76;100.00;99879.75;12204460;19;20026;-77
2022/10/26 09:02:52;;;;;;;5.70;2.25;;;;;;;17.03;100.00;99892.38;12180786;19;20034;-76
2022/10/26 09:07:34;;;;;;;7.50;2.50;;;;;;;17.43;100.00;99887.53;12211243;19;20082;-76
2022/10/26 09:11:54;;;;;;;8.05;1.92;;;;;;;17.85;100.00;99888.84;12209489;19;20846;-78
2022/10/26 09:16:30;;;;;;;9.98;2.45;;;;;;;18.17;100.00;99897.38;12195854;19;20010;-77
2022/10/26 09:20:51;;;;;;;4.70;2.25;;;;;;;18.28;100.00;99900.00;12257206;19;20003;-76
2022/10/26 09:24:55;;;;;;;4.68;2.58;;;;;;;18.45;100.00;99908.72;12203920;19;20007;-77
2022/10/26 09:29:01;;;;;;;4.80;2.15;;;;;;;18.37;100.00;99920.53;12219158;19;20036;-77
2022/10/26 09:33:14;;;;;;;5.28;2.22;;;;;;;18.36;100.00;99921.66;12231421;19;20019;-76
2022/10/26 09:37:29;;;;;;;8.98;2.20;;;;;;;18.40;100.00;99936.66;12250710;19;20132;-77
2022/10/26 09:41:38;;;;;;;4.63;2.10;;;;;;;18.37;100.00;99932.50;12232385;19;20022;-77
2022/10/26 09:45:46;;;;;;;7.43;2.30;;;;;;;18.42;100.00;99940.00;12197572;19;20476;-77
2022/10/26 09:49:53;;;;;;;7.13;2.45;;;;;;;18.35;100.00;99945.09;12219118;19;20010;-77
2022/10/26 09:53:56;;;;;;;5.57;2.17;;;;;;;18.24;100.00;99947.19;12194621;19;20024;-78
2022/10/26 09:58:02;;;;;;;5.68;2.40;;;;;;;18.32;100.00;99942.91;12208700;19;20361;-78
2022/10/26 10:02:32;;;;;;;5.75;2.30;;;;;;;18.41;100.00;99947.53;12217429;19;20357;-77
2022/10/26 10:06:34;;;;;;;11.35;2.70;;;;;;;18.46;100.00;99955.00;12197154;19;20034;-80
2022/10/26 10:10:36;;;;;;;4.88;2.25;;;;;;;18.61;100.00;99957.59;12218288;19;20030;-77
2022/10/26 10:14:55;;;;;;;7.50;2.35;;;;;;;18.88;100.00;99967.28;12217888;19;20011;-78
2022/10/26 10:19:00;;;;;;;8.32;2.67;;;;;;;18.98;98.77;99969.13;12188386;19;20018;-78
2022/10/26 10:23:03;;;;;;;7.93;2.60;;;;;;;19.03;98.77;99969.84;12214084;19;20006;-78
2022/10/26 10:27:16;;;;;;;6.70;2.03;;;;;;;19.03;99.43;99972.66;12191703;19;20404;-77
2022/10/26 10:31:26;;;;;;;7.25;1.92;;;;;;;19.25;96.36;99976.81;12217527;19;20007;-78
2022/10/26 10:35:28;;;;;;;6.35;2.38;;;;;;;19.32;96.55;99969.69;12213365;19;20070;-78
2022/10/26 10:39:40;;;;;;;9.20;2.22;;;;;;;19.52;94.78;99987.28;12193358;19;20475;-78
2022/10/26 10:43:46;;;;;;;7.65;2.28;;;;;;;19.60;94.17;100008.91;12213011;19;20366;-78
2022/10/26 10:48:25;;;;;;;6.38;2.42;;;;;;;19.53;93.55;100012.09;12192918;19;20006;-78
2022/10/26 10:52:30;;;;;;;9.77;2.60;;;;;;;19.35;95.04;100018.53;12209807;19;20031;-77
2022/10/26 10:56:41;;;;;;;5.82;2.45;;;;;;;19.33;96.57;100010.47;12211487;19;20030;-77
2022/10/26 11:00:47;;;;;;;8.90;2.15;;;;;;;19.41;97.17;100013.72;12190839;19;20003;-77
2022/10/26 11:04:58;;;;;;;7.72;2.80;;;;;;;19.47;96.15;100001.31;12213445;19;20066;-80
2022/10/26 11:09:06;;;;;;;6.38;2.45;;;;;;;19.86;96.55;100003.75;12195001;19;20014;-80
2022/10/26 11:13:23;;;;;;;9.07;2.33;;;;;;;20.39;93.98;100013.66;12213130;19;20082;-77
2022/10/26 11:17:29;;;;;;;6.50;2.58;;;;;;;20.69;90.95;100007.47;12208055;19;20017;-79
2022/10/26 11:21:36;;;;;;;4.63;2.17;;;;;;;21.16;87.92;100013.69;12185480;19;20006;-80
2022/10/26 11:25:58;;;;;;;6.93;2.65;;;;;;;21.09;85.04;100020.88;12214342;19;20601;-79
2022/10/26 11:30:13;;;;;;;7.38;2.75;;;;;;;21.11;85.71;100015.78;12195133;19;20015;-80
2022/10/26 11:34:25;;;;;;;7.57;2.47;;;;;;;21.03;85.99;100020.19;12215141;19;20023;-80
2022/10/26 11:38:49;;;;;;;7.55;2.90;;;;;;;21.19;86.49;100023.47;12206016;19;20837;-80
2022/10/26 11:43:20;;;;;;;8.18;2.42;;;;;;;21.32;85.02;100022.56;12175630;19;20516;-80
2022/10/26 11:47:39;;;;;;;6.65;2.67;;;;;;;21.37;86.92;100030.91;12203140;19;20050;-77
2022/10/26 11:51:47;;;;;;;10.27;3.03;;;;;;;21.42;86.43;100032.75;12178611;19;20006;-79
2022/10/26 11:55:54;;;;;;;5.88;2.50;;;;;;;21.38;86.24;100026.13;12203843;19;20043;-77
2022/10/26 12:00:01;;;;;;;5.78;2.55;;;;;;;21.38;86.81;100029.75;12178813;19;20019;-80
2022/10/26 12:04:05;;;;;;;7.63;2.70;;;;;;;21.36;86.96;100028.44;12202856;19;20015;-81
2022/10/26 12:08:17;;;;;;;7.45;2.60;;;;;;;21.42;85.77;100029.09;12202219;19;20010;-78
2022/10/26 12:12:31;;;;;;;9.45;2.50;;;;;;;21.47;85.39;100035.44;12181539;19;20014;-80
2022/10/26 12:16:45;;;;;;;7.15;2.40;;;;;;;21.51;85.13;100038.44;12205542;19;20019;-79
2022/10/26 12:21:01;;;;;;;6.20;2.30;;;;;;;21.52;84.65;100034.47;12212424;19;20037;-76
2022/10/26 12:25:16;;;;;;;5.97;2.70;;;;;;;21.54;83.96;100043.41;12243798;19;20007;-77
2022/10/26 12:29:35;;;;;;;7.45;2.55;;;;;;;21.56;83.91;100043.91;12239262;19;20015;-80
2022/10/26 12:33:49;;;;;;;9.75;2.95;;;;;;;21.66;83.97;100046.47;12213209;19;20025;-79
2022/10/26 12:37:50;;;;;;;4.35;2.25;;;;;;;21.79;83.31;100042.75;12239851;19;20040;-79
2022/10/26 12:42:17;;;;;;;7.30;2.40;;;;;;;22.01;83.00;100046.69;12225041;19;20307;-78
2022/10/26 12:46:24;;;;;;;6.20;2.40;;;;;;;22.14;80.94;100043.00;12244841;19;20014;-77
2022/10/26 12:50:26;;;;;;;10.10;2.67;;;;;;;22.18;80.91;100048.81;12246703;19;20011;-77
2022/10/26 12:54:44;;;;;;;7.30;2.50;;;;;;;22.21;80.64;100053.78;12179776;19;20464;-77
2022/10/26 12:59:02;;;;;;;5.75;2.47;;;;;;;22.27;81.03;100052.50;12199170;19;20086;-78
2022/10/26 13:03:17;;;;;;;8.48;2.70;;;;;;;22.28;80.31;100062.59;12186809;19;20016;-80
2022/10/26 13:07:24;;;;;;;4.38;2.20;;;;;;;22.19;80.46;100061.69;12210225;19;20491;-77
2022/10/26 13:11:42;;;;;;;6.80;2.28;;;;;;;22.10;80.54;100060.78;12210980;19;20026;-76
2022/10/26 13:15:56;;;;;;;7.38;2.38;;;;;;;22.22;81.47;100064.72;12190872;19;20018;-80
2022/10/26 13:20:16;;;;;;;6.93;2.83;;;;;;;22.15;81.61;100067.09;12208264;19;20068;-80
2022/10/26 13:24:23;;;;;;;8.85;2.40;;;;;;;22.15;80.91;100067.09;12188181;19;20070;-77
2022/10/26 13:28:37;;;;;;;10.02;2.08;;;;;;;22.31;80.94;100073.19;12210701;19;20006;-80
2022/10/26 13:32:47;;;;;;;8.00;2.75;;;;;;;22.35;80.61;100067.75;12211260;19;20015;-77
2022/10/26 13:37:06;;;;;;;7.57;2.60;;;;;;;22.57;80.47;100061.22;12187186;19;20010;-78
2022/10/26 13:41:20;;;;;;;6.70;2.15;;;;;;;22.68;78.43;100057.81;12210947;19;20002;-76
2022/10/26 13:45:26;;;;;;;6.90;2.40;;;;;;;22.42;78.09;100065.28;12185713;19;20031;-77
2022/10/26 13:49:46;;;;;;;8.63;3.13;;;;;;;22.27;79.29;100069.34;12205785;19;20701;-77
2022/10/26 13:54:03;;;;;;;8.25;2.30;;;;;;;21.87;81.19;100066.44;12181213;19;20006;-77
2022/10/26 13:58:20;;;;;;;9.05;2.35;;;;;;;21.76;82.69;100068.66;12201100;19;20015;-80
2022/10/26 14:02:25;;;;;;;7.38;2.85;;;;;;;21.71;82.19;100063.16;12201722;19;20013;-78
2022/10/26 14:06:38;;;;;;;6.90;2.53;;;;;;;21.66;83.51;100082.13;12181271;19;20033;-77
2022/10/26 14:10:44;;;;;;;7.15;2.50;;;;;;;21.63;84.15;100086.38;12199654;19;20068;-80
2022/10/26 14:14:46;;;;;;;9.77;2.78;;;;;;;21.56;84.01;100085.97;12201020;19;20048;-79
2022/10/26 14:18:48;;;;;;;5.90;2.40;;;;;;;21.64;84.03;100084.41;12176879;19;20559;-79
2022/10/26 14:22:50;;;;;;;6.28;2.38;;;;;;;21.66;83.83;100087.72;12189914;19;20121;-79
2022/10/26 14:26:52;;;;;;;5.03;2.42;;;;;;;21.64;83.83;100088.03;12176691;19;20377;-79
2022/10/26 14:31:10;;;;;;;6.30;1.92;;;;;;;21.56;83.68;100097.19;12200477;19;20508;-80
2022/10/26 14:35:16;;;;;;;8.20;2.38;;;;;;;21.45;83.52;100099.41;12201713;19;20026;-79
2022/10/26 14:39:39;;;;;;;3.42;2.00;;;;;;;21.33;83.23;100101.91;12179171;19;20014;-80
2022/10/26 14:43:42;;;;;;;;;;;;;;;21.26;83.67;100107.91;12251221;19;20002;-75
2022/10/26 14:47:48;;;;;;;6.72;2.05;;;;;;;21.22;83.62;100111.69;12240960;19;19926;-79
2022/10/26 14:51:57;;;;;;;10.15;2.42;;;;;;;21.14;84.73;100111.25;12182320;19;20068;-78
2022/10/26 14:56:00;;;;;;;6.05;2.55;;;;;;;21.11;85.20;100122.25;12203667;19;20010;-78
2022/10/26 15:00:34;;;;;;;9.88;2.47;;;;;;;21.01;86.30;100126.13;12179310;19;20452;-81
2022/10/26 15:04:39;;;;;;;5.78;2.10;;;;;;;20.98;86.68;100118.34;12201433;19;20011;-77
2022/10/26 15:08:43;;;;;;;4.50;2.15;;;;;;;20.90;87.44;100128.28;12217830;19;20020;-81
2022/10/26 15:12:57;;;;;;;7.90;2.40;;;;;;;20.87;87.88;100140.13;12186287;19;20046;-81
2022/10/26 15:16:59;;;;;;;5.53;2.55;;;;;;;20.76;88.97;100137.81;12213288;19;20010;-80
2022/10/26 15:21:01;;;;;;;4.68;2.03;;;;;;;20.67;89.05;100141.38;12186691;19;20472;-80
2022/10/26 15:25:04;;;;;;;8.63;2.50;;;;;;;20.53;90.35;100148.09;12211977;19;20044;-79
2022/10/26 15:29:40;;;;;;;6.57;2.42;;;;;;;20.42;91.80;100144.59;12217257;19;20022;-80
2022/10/26 15:33:51;;;;;;;9.18;2.15;;;;;;;20.32;91.94;100156.81;12193100;19;20010;-80
2022/10/26 15:37:54;;;;;;;8.13;2.38;;;;;;;20.20;92.65;100162.88;12212950;19;20046;-80
2022/10/26 15:41:56;;;;;;;8.15;2.70;;;;;;;20.02;93.37;100164.56;12191438;19;20038;-80
2022/10/26 15:45:58;;;;;;;9.18;2.65;;;;;;;19.87;94.70;100162.03;12215224;19;20038;-80
2022/10/26 15:50:00;;;;;;;9.40;2.50;;;;;;;19.70;96.58;100167.31;12215804;19;20503;-78
2022/10/26 15:54:03;;;;;;;6.90;2.40;;;;;;;19.58;97.36;100170.53;12193297;19;20063;-79
2022/10/26 15:58:09;;;;;;;6.70;2.50;;;;;;;19.45;98.09;100176.84;12210643;19;20341;-79
2022/10/26 16:02:13;;;;;;;8.23;2.88;;;;;;;19.31;99.27;100187.94;12210056;19;20002;-79
2022/10/26 16:06:17;;;;;;;8.48;2.60;;;;;;;19.18;100.00;100191.44;12207129;19;20014;-78
2022/10/26 16:10:23;;;;;;;7.43;3.00;;;;;;;19.01;100.00;100187.19;12251309;19;20024;-80
2022/10/26 16:14:25;;;;;;;6.28;3.15;;;;;;;18.82;100.00;100198.25;12212368;19;20018;-80
2022/10/26 16:18:33;;;;;;;11.30;3.72;;;;;;;18.65;100.00;100192.28;12188010;19;20475;-79
2022/10/26 16:22:35;;;;;;;12.13;4.10;;;;;;;18.60;100.00;100206.28;12204267;19;20007;-79
2022/10/26 16:26:39;;;;;;;6.45;3.05;;;;;;;18.49;100.00;100207.50;12210412;19;20032;-79
2022/10/26 16:30:40;;;;;;;7.15;3.10;;;;;;;18.41;100.00;100217.31;12189456;19;20114;-79
2022/10/26 16:34:42;;;;;;;6.75;3.33;;;;;;;18.32;100.00;100228.31;12207819;19;20007;-78
2022/10/26 16:38:44;;;;;;;11.00;2.95;;;;;;;18.19;100.00;100229.78;12221849;19;20026;-79
2022/10/26 16:42:45;;;;;;;11.27;2.65;;;;;;;18.10;100.00;100231.50;12197853;19;20007;-79
2022/10/26 16:46:47;;;;;;;7.25;2.60;;;;;;;18.00;100.00;100226.03;12219159;19;20017;-79
2022/10/26 16:50:49;;;;;;;11.80;3.75;;;;;;;17.91;100.00;100233.34;12190138;19;20030;-79
2022/10/26 16:54:50;;;;;;;8.63;2.72;;;;;;;17.83;100.00;100239.50;12219152;19;20013;-79
2022/10/26 16:58:52;;;;;;;6.88;2.75;;;;;;;17.73;100.00;100246.78;12219321;19;20083;-79
2022/10/26 17:02:54;;;;;;;6.28;2.65;;;;;;;17.68;100.00;100255.16;12198068;19;20499;-80
2022/10/26 17:06:55;;;;;;;10.23;2.85;;;;;;;17.61;100.00;100262.16;12221104;19;20496;-79
2022/10/26 17:11:18;;;;;;;7.18;3.10;;;;;;;17.52;100.00;100262.75;12222273;19;20086;-79
2022/10/26 17:15:25;;;;;;;9.48;3.40;;;;;;;17.45;100.00;100269.75;12232099;19;20049;-78
2022/10/26 17:19:29;;;;;;;17.63;10.20;;;;;;;17.36;100.00;100275.06;12256840;19;20013;-78
2022/10/26 17:23:31;;;;;;;13.90;6.55;;;;;;;17.30;100.00;100274.25;12233709;19;20042;-80
2022/10/26 17:27:33;;;;;;;8.95;4.50;;;;;;;17.22;100.00;100286.00;12198901;19;20039;-79
2022/10/26 17:31:35;;;;;;;14.63;4.82;;;;;;;17.18;100.00;100290.44;12223466;19;20747;-79
2022/10/26 17:35:37;;;;;;;;;;;;;;;17.13;100.00;100296.00;12219757;19;20031;-79
2022/10/26 17:39:39;;;;;;;9.05;3.55;;;;;;;17.08;100.00;100302.44;12199280;19;19907;-79
2022/10/26 17:43:41;;;;;;;10.63;4.32;;;;;;;17.04;100.00;100319.97;12224396;19;20031;-79
2022/10/26 17:47:43;;;;;;;9.30;4.45;;;;;;;17.00;100.00;100330.00;12218316;19;20014;-79
2022/10/26 17:51:45;;;;;;;12.65;3.60;;;;;;;16.93;100.00;100332.25;12199372;19;20006;-79
2022/10/26 17:55:46;;;;;;;8.10;3.65;;;;;;;16.89;100.00;100340.31;12222457;19;20030;-79
2022/10/26 17:59:48;;;;;;;7.65;4.03;;;;;;;16.85;100.00;100337.25;12199264;19;20066;-79
2022/10/26 18:03:50;;;;;;;8.73;4.35;;;;;;;16.80;100.00;100348.38;12218572;19;20011;-79
2022/10/26 18:07:52;;;;;;;11.15;3.97;;;;;;;16.77;100.00;100348.09;12218482;19;20010;-79
2022/10/26 18:11:54;;;;;;;8.75;4.22;;;;;;;16.74;100.00;100351.41;12197606;19;20348;-79
2022/10/26 18:16:11;;;;;;;11.82;3.90;;;;;;;16.71;100.00;100354.75;12219684;19;20015;-79
2022/10/26 18:20:12;;;;;;;10.30;3.75;;;;;;;16.67;100.00;100362.81;12215207;19;20039;-78
2022/10/26 18:24:14;;;;;;;12.82;3.97;;;;;;;16.65;100.00;100370.59;12188843;19;20014;-79
2022/10/26 18:28:16;;;;;;;13.10;4.80;;;;;;;16.61;100.00;100381.47;12213438;19;20028;-79
2022/10/26 18:32:17;;;;;;;10.52;5.00;;;;;;;16.58;100.00;100393.13;12215003;19;20010;-79
2022/10/26 18:36:19;;;;;;;13.20;4.45;;;;;;;16.54;100.00;100391.19;12193575;19;20010;-79
2022/10/26 18:40:21;;;;;;;8.70;4.78;;;;;;;16.49;100.00;100394.78;12216913;19;20043;-79
2022/10/26 18:44:22;;;;;;;13.50;4.40;;;;;;;16.48;100.00;100406.19;12216812;19;20042;-80
2022/10/26 18:48:24;;;;;;;10.05;3.40;;;;;;;16.48;100.00;100403.41;12193831;19;20006;-80
2022/10/26 18:52:26;;;;;;;11.35;3.38;;;;;;;16.47;100.00;100404.53;12214974;19;20019;-79
2022/10/26 18:56:28;;;;;;;10.05;3.28;;;;;;;16.45;100.00;100401.16;12216898;19;20047;-79